Mustafa Dayi — TCZF2 — position and weather

sailwx.info

Track history (hours):
 
Tides and Currents Weather Stations Pressure Air Temp Water Temp Dewpoint Dewpoint Depression Visibility Wind Speed Wind Dir Waves Ship Positions

Mustafa Dayi

Last reported at 2014-Sep-02 00:33 UTC. Time now 2014-Sep-02 01:56 UTC.
Position N 36°36' E 013°51'.

Length 183 m; draft 9.8 m.

Type: Ship. MMSI: 271042433.

Date/timePositionNaut miles runAvg speedWind from/ knotsBaromVisibWave heightAir tempDewpointWater temp
2014-Sep-02 00:33N 36°36' E 013°51'1913.7
2014-Sep-01 23:09N 36°41' E 013°28'813.7
2014-Sep-01 22:32N 36°43' E 013°17'6913.8
2014-Sep-01 17:33N 37°05' E 011°56'1514.5
2014-Sep-01 16:33N 37°11' E 011°39'1514.6
2014-Sep-01 15:31N 37°18' E 011°22'42114.1
2014-Aug-31 09:33N 36°56' E 002°35'10914.7
2014-Aug-31 02:09N 36°38' E 000°21'1115.1
2014-Aug-31 01:26N 36°37' E 000°07'1714.6
2014-Aug-31 00:15N 36°34' W 000°14'1013.6
2014-Aug-30 23:29N 36°32' W 000°26'1313.7
2014-Aug-30 22:33N 36°29' W 000°42'5713.6
2014-Aug-30 18:24N 36°20' W 001°51'1214.0
2014-Aug-30 17:33N 36°18' W 002°06'15414.8
2014-Aug-30 07:07N 35°59' W 005°15'915.5
2014-Aug-30 06:33N 35°57' W 005°26'6614.7
2014-Aug-30 02:05N 35°53' W 006°47'3514.0
2014-Aug-29 23:33N 35°53' W 007°30'1513.9
2014-Aug-29 22:30N 35°53' W 007°48'1313.9
2014-Aug-29 21:32N 35°52' W 008°05'1413.9
2014-Aug-29 20:34N 35°52' W 008°22'1413.8
2014-Aug-29 19:33N 35°51' W 008°39'1413.8
2014-Aug-29 18:33N 35°52' W 008°56'1413.7
2014-Aug-29 17:33N 35°52' W 009°13'1413.8
2014-Aug-29 16:34N 35°51' W 009°30'2813.9
2014-Aug-29 14:32N 35°52' W 010°04'1513.7
2014-Aug-29 13:25N 35°51' W 010°23'69813.9
2014-Aug-27 11:15N 35°38' W 024°43'1014.2
2014-Aug-27 10:33N 35°38' W 024°55'1514.6
2014-Aug-27 09:33N 35°37' W 025°13'1514.5
2014-Aug-27 08:33N 35°36' W 025°31'1414.0
2014-Aug-27 07:34N 35°35' W 025°48'1413.8
2014-Aug-27 06:33N 35°34' W 026°05'1414.0
2014-Aug-27 05:33N 35°33' W 026°22'1714.2
2014-Aug-27 04:20N 35°32' W 026°43'1314.1
2014-Aug-27 03:25N 35°31' W 026°59'1414.2
2014-Aug-27 02:27N 35°30' W 027°16'1414.8
2014-Aug-27 01:32N 35°28' W 027°33'1414.7
2014-Aug-27 00:33N 35°27' W 027°50'2914.5
2014-Aug-26 22:31N 35°26' W 028°26'1414.4
2014-Aug-26 21:31N 35°26' W 028°44'  
Track history (hours):
 
Tides and Currents Weather Stations Pressure Air Temp Water Temp Dewpoint Dewpoint Depression Visibility Wind Speed Wind Dir Waves Ship Positions

Mustafa Dayi

Last reported at 2014-Sep-02 00:33 UTC. Time now 2014-Sep-02 01:56 UTC.
Position N 36°36' E 013°51'.

Length 183 m; draft 9.8 m.

Type: Ship. MMSI: 271042433.

Date/timePositionNaut miles runAvg speedWind from/ knotsBaromVisibWave heightAir tempDewpointWater temp
2014-Sep-02 00:33N 36°36' E 013°51'1913.7
2014-Sep-01 23:09N 36°41' E 013°28'813.7
2014-Sep-01 22:32N 36°43' E 013°17'6913.8
2014-Sep-01 17:33N 37°05' E 011°56'1514.5
2014-Sep-01 16:33N 37°11' E 011°39'1514.6
2014-Sep-01 15:31N 37°18' E 011°22'42114.1
2014-Aug-31 09:33N 36°56' E 002°35'10914.7
2014-Aug-31 02:09N 36°38' E 000°21'1115.1
2014-Aug-31 01:26N 36°37' E 000°07'1714.6
2014-Aug-31 00:15N 36°34' W 000°14'1013.6
2014-Aug-30 23:29N 36°32' W 000°26'1313.7
2014-Aug-30 22:33N 36°29' W 000°42'5713.6
2014-Aug-30 18:24N 36°20' W 001°51'1214.0
2014-Aug-30 17:33N 36°18' W 002°06'15414.8
2014-Aug-30 07:07N 35°59' W 005°15'915.5
2014-Aug-30 06:33N 35°57' W 005°26'6614.7
2014-Aug-30 02:05N 35°53' W 006°47'3514.0
2014-Aug-29 23:33N 35°53' W 007°30'1513.9
2014-Aug-29 22:30N 35°53' W 007°48'1313.9
2014-Aug-29 21:32N 35°52' W 008°05'1413.9
2014-Aug-29 20:34N 35°52' W 008°22'1413.8
2014-Aug-29 19:33N 35°51' W 008°39'1413.8
2014-Aug-29 18:33N 35°52' W 008°56'1413.7
2014-Aug-29 17:33N 35°52' W 009°13'1413.8
2014-Aug-29 16:34N 35°51' W 009°30'2813.9
2014-Aug-29 14:32N 35°52' W 010°04'1513.7
2014-Aug-29 13:25N 35°51' W 010°23'69813.9
2014-Aug-27 11:15N 35°38' W 024°43'1014.2
2014-Aug-27 10:33N 35°38' W 024°55'1514.6
2014-Aug-27 09:33N 35°37' W 025°13'1514.5
2014-Aug-27 08:33N 35°36' W 025°31'1414.0
2014-Aug-27 07:34N 35°35' W 025°48'1413.8
2014-Aug-27 06:33N 35°34' W 026°05'1414.0
2014-Aug-27 05:33N 35°33' W 026°22'1714.2
2014-Aug-27 04:20N 35°32' W 026°43'1314.1
2014-Aug-27 03:25N 35°31' W 026°59'1414.2
2014-Aug-27 02:27N 35°30' W 027°16'1414.8
2014-Aug-27 01:32N 35°28' W 027°33'1414.7
2014-Aug-27 00:33N 35°27' W 027°50'2914.5
2014-Aug-26 22:31N 35°26' W 028°26'1414.4
2014-Aug-26 21:31N 35°26' W 028°44'  

Dump ship's entire track history